Main page
METAR-TAF:

METAR-TAF

Airports :

Riyadh, Saudi Arabia

Riyadh Air Base

latitude: 24-43N, longitude: 046-44E, elevation: 635 m

METAR: missing

Time: 07:56 (04:56 UTC)

Forecast

The report was made 5 hours and 56 minutes ago, at 23:00 UTC
Forecast valid from 24 at 00 UTC to 25 at 06 UTC
Wind 13 kt from the North/Northeast
Visibility: 8000 m
Temporary
from 24 at 00 UTC to 24 at 12 UTC
Visibility: 4000 m
widespread dust

TAF: OERY 232300Z 2400/2506 03013KT 8000 NSC TEMPO 2400/2412 4000 DU

Weather observations and forecasts of more than 4000 airports (METAR and TAF reports).

The available stations are represented by yellow and red dots on the map.

Hover mouse over dot to see the name of the station.

Then click to see weather observations and forecasts.

To change the map : click on the green buttons with a black cross to zoom in, on the green button with a dash to zoom out, or on the green arrows for adjacent maps.


METAR-TAF: